Weather observations for the past three days for
La Crosse - La Crosse Regional Airport
Metric (Imperial)
Date Time (cdt) Wind (kph) Vis. (km) Weather Sky Cond. Temperature (ºC) Relative Humidity Wind Chill (°C) Heat Index (°C) Pressure Precipitation (cm)
Air Dwpt 6 hour altimeter (cm) sea level (mb) 1 hr 3 hr 6 hr
Max. Min.
03 20:53 SE 11 16.09 Fair CLR 26.1 22.8 82% 28 75.82 1009.9
03 19:53 SE 9 16.09 Fair CLR 27.2 22.8 77% 30 75.77 1009.1
03 18:53 SE 13 16.09 A Few Clouds FEW100 28.3 22.8 30 25.6 72% 32 75.77 1009.1
03 17:53 S 15 16.09 Fair CLR 29.4 22.2 65% 33 75.79 1009.3
03 16:53 SE 15 16.09 Fair CLR 29.4 21.7 63% 32 75.82 1009.5
03 15:53 SE 13 16.09 Fair CLR 28 21 66% 30 50.42 0.0
03 14:53 S 7 16.09 Fair CLR 27.8 21.1 67% 30 75.87 1010.4
03 13:53 SW 11 16.09 Fair CLR 27.2 21.1 69% 29 75.9 1010.8
03 12:53 S 9 16.09 Fair CLR 26.1 21.1 26.1 21.7 74% 28 75.9 1010.9 0.18
03 11:53 S 13 16.09 A Few Clouds FEW120 23.3 21.7 91% 75.95 1011.5
03 10:53 E 9 16.09 Light Rain FEW043 SCT070 BKN100 22.8 21.1 90% 75.92 1011.2 0.03
03 09:53 S 7 16.09 Partly Cloudy FEW035 FEW050 SCT095 23.3 20 82% 75.9 1010.9 0.15
03 08:53 SE 7 16.09 Partly Cloudy FEW050 SCT110 21.7 20 90% 75.95 1011.5 0.1
03 07:53 S 17 16.09 Light Rain CLR 22.8 19.4 81% 76.05 1012.9 0.05
03 06:53 S 19 16.09 Mostly Cloudy BKN080 BKN110 23 22 94% 76.05 0.0
03 05:53 Calm 16.09 Mostly Cloudy BKN085 22.2 21.1 94% 75.9 1010.5
03 04:53 SE 6 16.09 Fair CLR 22.2 20.6 91% 75.84 1009.8
03 01:53 SE 9 16.09 Fair CLR 22.2 21.1 94% 75.87 1010.3
03 00:53 SE 9 16.09 Fair CLR 22.8 21.1 29.4 22.8 90% 75.87 1010.5
02 23:53 SE 7 16.09 A Few Clouds FEW070 22.8 21.1 90% 75.9 1010.8
02 22:53 SE 9 16.09 Fair CLR 23.3 21.7 91% 75.9 1010.9
02 20:53 SE 9 16.09 Fair CLR 25.6 20.6 74% 27 75.9 1010.8
02 19:53 S 9 16.09 Fair CLR 27.8 20.6 65% 30 75.84 1010.2
02 18:53 SW 11 16.09 Fair CLR 29.4 20.6 31.1 27.8 59% 32 75.84 1010.1
02 17:53 SW 11 16.09 Fair CLR 30.6 20 53% 33 75.82 1009.8
02 16:53 SW 15 16.09 Fair CLR 30.6 20 53% 33 75.84 1010.0
02 15:53 S 17 16.09 Fair CLR 31.1 20.6 54% 34 75.87 1010.2
02 14:53 SW 13 16.09 Fair CLR 30 20.6 57% 32 75.9 1010.8
02 13:53 SW 13 16.09 Fair CLR 29 22 66% 32 75.97 0.0
02 12:53 S 15 16.09 Fair CLR 27.8 20.6 28.3 18.9 65% 30 75.97 1011.8
02 11:53 S 11 16.09 Fair CLR 26.1 20 69% 27 76 1012.2
02 10:53 Vrbl 7 16.09 Fair CLR 24.4 19.4 74% 25 76 1012.3
02 09:53 S 9 16.09 Fair CLR 22.2 18.9 82% 76.02 1012.5
02 08:53 Calm 16.09 Fair CLR 21.1 18.9 87% 76.05 1013.0
02 07:53 S 7 16.09 Fair CLR 19.4 18.3 93% 76.07 1013.3
02 06:53 E 13 16.09 Light Rain FEW080 SCT100 18.9 17.2 22.8 18.9 90% 76 1012.2 0.05 0.58
02 05:53 SE 7 16.09 Thunderstorm in Vicinity Light Rain BKN075 BKN090 19.4 17.8 91% 76.1 1013.7 0.08
02 04:53 NE 11 14.48 Thunderstorm in Vicinity Rain OVC090 20 17.2 84% 76.02 1012.3
02 03:53 N 9 16.09 Mostly Cloudy FEW080 BKN090 20.6 18.9 90% 76.05 1012.7 0.03 0.46
02 02:53 N 24 G 59 4.02 Thunderstorm Light Rain Fog/Mist BKN036 BKN065 OVC080 20.6 19.4 93% 76.15 1014.1 0.43
02 01:53 E 6 16.09 Overcast BKN085 OVC120 21.7 19.4 87% 75.92 1010.8
02 00:53 SE 13 16.09 Overcast OVC075 22.2 20.6 26.1 21.7 91% 75.92 1011.0 1.55
01 23:53 Calm 16.09 Thunderstorm Light Rain SCT041 BKN047 OVC095 22.8 21.1 90% 76 1012.1 1.55
01 22:53 Calm 16.09 Thunderstorm SCT041 SCT055 BKN110 22.8 21.7 94% 75.97 1011.8
01 21:53 Calm 16.09 A Few Clouds FEW110 23.9 21.7 88% 24 76 1012.2
01 20:53 Calm 16.09 Light Rain BKN110 24 21 83% 24 75.97 0.0
01 19:53 N 9 16.09 Light Rain FEW110 23.9 22.2 90% 23 75.95 1011.6
01 18:53 S 9 16.09 Light Rain CLR 26.1 23.3 32.2 26.1 85% 28 75.9 1010.8
01 17:53 NW 17 16.09 Light Rain FEW045 SCT095 SCT110 27.8 23.9 79% 32 76.05 1012.6
01 16:53 SW 6 16.09 Fair CLR 31.1 20.6 54% 34 75.95 1011.2
01 15:53 Calm 16.09 Fair CLR 32.2 20.6 50% 35 75.97 1011.5
01 14:53 W 6 16.09 Fair CLR 30.6 21.7 59% 34 76 1011.9
01 13:53 NW 9 16.09 Fair CLR 31.1 21.7 57% 34 76.02 1012.1
01 12:53 Vrbl 7 16.09 Fair CLR 30.6 21.7 30.6 22.2 59% 34 76.05 1012.4
01 11:53 Calm 16.09 Fair CLR 27.2 23.3 79% 30 76.07 1013.0
01 10:53 Vrbl 6 16.09 Mostly Cloudy BKN005 25.6 23.3 87% 27 76.07 1013.1
01 09:53 Calm 16.09 Overcast OVC005 23.3 22.2 94% 76.07 1013.1
01 08:53 Calm 12.87 Overcast OVC002 22.8 22.2 96% 76.07 1013.2
01 07:53 Calm 0.40 Fog VV002 22.8 22.8 100% 76.07 1013.2
01 06:53 Calm 0.40 Fog VV003 22.2 22.2 23.9 22.2 100% 76.05 1012.6
01 05:53 SW 6 1.61 Fog/Mist VV002 22.2 22.2 100% 76.02 1012.1
01 04:53 SW 6 1.61 Fog/Mist VV002 22.8 22.8 100% 76 1011.9
01 03:53 S 7 0.80 Fog VV002 23.3 23.3 100% 75.97 1011.5
01 02:53 S 6 0.80 Fog VV002 23.3 23.3 100% 75.97 1011.6
01 01:53 Calm 9.66 Fog/Mist SCT004 23.3 23.3 100% 75.97 1011.7
01 00:53 Calm 9.66 Fog/Mist CLR 23.9 23.3 30 23.3 96% 23 75.95 1011.3
31 23:53 S 9 16.09 Fair CLR 25 23.9 94% 26 75.95 1011.2
31 22:53 Calm 16.09 Fair CLR 25.6 24.4 93% 27 75.92 1010.8
31 21:53 Calm 16.09 A Few Clouds FEW031 26.1 24.4 90% 28 75.92 1011.0
Date Time (cdt) Wind (kph) Vis. (km) Weather Sky Cond. Air Dwpt Max. Min. Relative Humidity Wind Chill (°C) Heat Index (°C) altimeter (cm) sea level (mb) 1 hr 3 hr 6 hr
6 hour
Temperature (ºC) Pressure Precipitation (cm)